sensor_id;sensor_type;location;lat;lon;timestamp;pressure;altitude;pressure_sealevel;temperature;humidity
25638;BME280;13496;51.040;13.680;2022-09-09T00:05:14;99370.78;;;22.90;49.28
25638;BME280;13496;51.040;13.680;2022-09-09T00:21:13;99371.50;;;22.67;49.04
25638;BME280;13496;51.040;13.680;2022-09-09T00:26:34;99362.81;;;22.79;49.14
25638;BME280;13496;51.040;13.680;2022-09-09T00:31:39;99363.41;;;22.81;48.90
25638;BME280;13496;51.040;13.680;2022-09-09T00:36:41;99360.88;;;22.86;49.16
25638;BME280;13496;51.040;13.680;2022-09-09T00:47:35;99361.22;;;22.89;49.29
25638;BME280;13496;51.040;13.680;2022-09-09T00:53:02;99367.31;;;22.90;48.96
25638;BME280;13496;51.040;13.680;2022-09-09T00:58:08;99363.50;;;22.86;49.03
25638;BME280;13496;51.040;13.680;2022-09-09T01:19:32;99378.84;;;22.65;48.81
25638;BME280;13496;51.040;13.680;2022-09-09T01:29:54;99377.56;;;22.38;49.00
25638;BME280;13496;51.040;13.680;2022-09-09T01:34:56;99374.81;;;22.33;48.58
25638;BME280;13496;51.040;13.680;2022-09-09T01:39:59;99367.06;;;22.31;48.82
25638;BME280;13496;51.040;13.680;2022-09-09T01:45:01;99368.34;;;22.29;48.57
25638;BME280;13496;51.040;13.680;2022-09-09T01:50:03;99364.88;;;22.28;48.73
25638;BME280;13496;51.040;13.680;2022-09-09T01:55:06;99364.00;;;22.34;48.50
25638;BME280;13496;51.040;13.680;2022-09-09T02:00:14;99359.31;;;22.36;48.52
25638;BME280;13496;51.040;13.680;2022-09-09T02:10:45;99359.06;;;22.38;48.39
25638;BME280;13496;51.040;13.680;2022-09-09T02:16:00;99365.75;;;22.40;48.42
25638;BME280;13496;51.040;13.680;2022-09-09T02:21:05;99355.03;;;22.35;48.57
25638;BME280;13496;51.040;13.680;2022-09-09T02:26:13;99372.66;;;22.41;48.66
25638;BME280;13496;51.040;13.680;2022-09-09T02:31:24;99365.31;;;22.43;48.71
25638;BME280;13496;51.040;13.680;2022-09-09T02:36:32;99367.72;;;22.45;48.85
25638;BME280;13496;51.040;13.680;2022-09-09T02:41:41;99366.47;;;22.48;48.74
25638;BME280;13496;51.040;13.680;2022-09-09T02:52:19;99363.97;;;22.53;48.65
25638;BME280;13496;51.040;13.680;2022-09-09T02:57:27;99363.53;;;22.56;48.72
25638;BME280;13496;51.040;13.680;2022-09-09T03:02:29;99358.00;;;22.57;48.54
25638;BME280;13496;51.040;13.680;2022-09-09T03:07:37;99372.03;;;22.58;48.69
25638;BME280;13496;51.040;13.680;2022-09-09T03:12:42;99371.81;;;22.59;48.58
25638;BME280;13496;51.040;13.680;2022-09-09T03:17:45;99364.94;;;22.58;48.61
25638;BME280;13496;51.040;13.680;2022-09-09T03:22:47;99368.16;;;22.42;48.20
25638;BME280;13496;51.040;13.680;2022-09-09T03:27:50;99373.09;;;22.38;48.62
25638;BME280;13496;51.040;13.680;2022-09-09T03:32:54;99370.38;;;22.27;48.61
25638;BME280;13496;51.040;13.680;2022-09-09T03:38:04;99369.69;;;22.13;48.47
25638;BME280;13496;51.040;13.680;2022-09-09T03:43:09;99369.66;;;22.19;48.50
25638;BME280;13496;51.040;13.680;2022-09-09T03:48:11;99360.63;;;22.27;48.51
25638;BME280;13496;51.040;13.680;2022-09-09T03:53:14;99369.16;;;22.29;48.37
25638;BME280;13496;51.040;13.680;2022-09-09T03:58:16;99368.03;;;22.37;48.44
25638;BME280;13496;51.040;13.680;2022-09-09T04:03:23;99365.16;;;22.38;48.29
25638;BME280;13496;51.040;13.680;2022-09-09T04:08:26;99371.63;;;22.42;48.45
25638;BME280;13496;51.040;13.680;2022-09-09T04:13:29;99372.88;;;22.40;48.47
25638;BME280;13496;51.040;13.680;2022-09-09T04:18:32;99381.97;;;22.44;48.65
25638;BME280;13496;51.040;13.680;2022-09-09T04:23:36;99376.69;;;22.44;48.67
25638;BME280;13496;51.040;13.680;2022-09-09T04:28:38;99376.22;;;22.47;48.61
25638;BME280;13496;51.040;13.680;2022-09-09T04:33:45;99378.88;;;22.47;48.49
25638;BME280;13496;51.040;13.680;2022-09-09T04:38:48;99378.66;;;22.49;48.54
25638;BME280;13496;51.040;13.680;2022-09-09T04:43:50;99384.75;;;22.49;48.55
25638;BME280;13496;51.040;13.680;2022-09-09T04:48:53;99387.16;;;22.51;48.53
25638;BME280;13496;51.040;13.680;2022-09-09T04:53:57;99385.56;;;22.50;48.31
25638;BME280;13496;51.040;13.680;2022-09-09T04:58:59;99390.03;;;22.49;48.42
25638;BME280;13496;51.040;13.680;2022-09-09T05:04:11;99381.19;;;22.43;48.37
25638;BME280;13496;51.040;13.680;2022-09-09T05:09:13;99391.28;;;22.46;48.57
25638;BME280;13496;51.040;13.680;2022-09-09T05:14:15;99389.44;;;22.47;48.82
25638;BME280;13496;51.040;13.680;2022-09-09T05:19:16;99384.75;;;22.49;48.34
25638;BME280;13496;51.040;13.680;2022-09-09T05:24:23;99386.81;;;22.47;48.52
25638;BME280;13496;51.040;13.680;2022-09-09T05:29:28;99397.84;;;22.44;48.37
25638;BME280;13496;51.040;13.680;2022-09-09T05:34:31;99409.22;;;22.44;48.42
25638;BME280;13496;51.040;13.680;2022-09-09T05:39:33;99416.03;;;22.52;48.66
25638;BME280;13496;51.040;13.680;2022-09-09T05:44:38;99410.75;;;22.52;48.62
25638;BME280;13496;51.040;13.680;2022-09-09T05:49:40;99413.75;;;22.56;48.53
25638;BME280;13496;51.040;13.680;2022-09-09T05:54:42;99432.47;;;22.54;48.85
25638;BME280;13496;51.040;13.680;2022-09-09T05:59:44;99421.69;;;22.56;48.36
25638;BME280;13496;51.040;13.680;2022-09-09T06:04:48;99431.03;;;22.58;48.47
25638;BME280;13496;51.040;13.680;2022-09-09T06:09:49;99417.22;;;22.56;48.39
25638;BME280;13496;51.040;13.680;2022-09-09T06:14:52;99425.75;;;22.58;48.45
25638;BME280;13496;51.040;13.680;2022-09-09T06:19:55;99430.66;;;22.55;48.28
25638;BME280;13496;51.040;13.680;2022-09-09T06:24:57;99429.47;;;22.51;48.35
25638;BME280;13496;51.040;13.680;2022-09-09T06:29:59;99430.66;;;22.55;48.27
25638;BME280;13496;51.040;13.680;2022-09-09T06:35:01;99430.66;;;22.55;47.92
25638;BME280;13496;51.040;13.680;2022-09-09T06:40:03;99433.06;;;22.56;48.15
25638;BME280;13496;51.040;13.680;2022-09-09T06:45:05;99433.69;;;22.58;48.13
25638;BME280;13496;51.040;13.680;2022-09-09T06:50:14;99430.56;;;22.61;48.27
25638;BME280;13496;51.040;13.680;2022-09-09T06:55:16;99427.91;;;22.61;48.29
25638;BME280;13496;51.040;13.680;2022-09-09T07:00:19;99429.56;;;22.62;48.26
25638;BME280;13496;51.040;13.680;2022-09-09T07:05:21;99428.66;;;22.68;48.03
25638;BME280;13496;51.040;13.680;2022-09-09T07:10:23;99426.81;;;22.69;48.05
25638;BME280;13496;51.040;13.680;2022-09-09T07:15:25;99424.69;;;22.78;48.25
25638;BME280;13496;51.040;13.680;2022-09-09T07:20:29;99427.00;;;22.86;48.01
25638;BME280;13496;51.040;13.680;2022-09-09T07:25:31;99423.50;;;22.92;47.74
25638;BME280;13496;51.040;13.680;2022-09-09T07:30:33;99429.72;;;22.98;47.97
25638;BME280;13496;51.040;13.680;2022-09-09T07:35:35;99421.78;;;22.98;48.03
25638;BME280;13496;51.040;13.680;2022-09-09T07:40:38;99416.75;;;23.08;47.97
25638;BME280;13496;51.040;13.680;2022-09-09T07:45:41;99421.38;;;23.12;47.70
25638;BME280;13496;51.040;13.680;2022-09-09T07:50:43;99426.22;;;23.15;47.49
25638;BME280;13496;51.040;13.680;2022-09-09T07:55:45;99425.19;;;23.16;47.56
25638;BME280;13496;51.040;13.680;2022-09-09T08:00:47;99433.97;;;23.29;47.58
25638;BME280;13496;51.040;13.680;2022-09-09T08:05:49;99438.69;;;23.27;47.55
25638;BME280;13496;51.040;13.680;2022-09-09T08:10:51;99439.47;;;23.27;47.62
25638;BME280;13496;51.040;13.680;2022-09-09T08:15:55;99443.69;;;23.16;47.70
25638;BME280;13496;51.040;13.680;2022-09-09T08:20:57;99433.13;;;23.16;47.65
25638;BME280;13496;51.040;13.680;2022-09-09T08:26:09;99440.16;;;23.23;47.71
25638;BME280;13496;51.040;13.680;2022-09-09T08:31:13;99444.22;;;23.25;47.60
25638;BME280;13496;51.040;13.680;2022-09-09T08:36:19;99448.22;;;23.28;47.27
25638;BME280;13496;51.040;13.680;2022-09-09T08:47:01;99449.81;;;23.17;46.87
25638;BME280;13496;51.040;13.680;2022-09-09T08:52:28;99448.56;;;23.31;46.88
25638;BME280;13496;51.040;13.680;2022-09-09T08:57:32;99448.00;;;23.29;46.57
25638;BME280;13496;51.040;13.680;2022-09-09T09:02:48;99452.34;;;23.24;46.97
25638;BME280;13496;51.040;13.680;2022-09-09T09:08:10;99458.38;;;23.31;47.06
25638;BME280;13496;51.040;13.680;2022-09-09T09:13:19;99460.66;;;23.27;47.18
25638;BME280;13496;51.040;13.680;2022-09-09T09:18:24;99473.63;;;23.17;47.50
25638;BME280;13496;51.040;13.680;2022-09-09T09:23:34;99482.84;;;23.14;47.31
25638;BME280;13496;51.040;13.680;2022-09-09T09:28:40;99475.44;;;23.05;47.45
25638;BME280;13496;51.040;13.680;2022-09-09T09:33:50;99472.25;;;23.14;47.41
25638;BME280;13496;51.040;13.680;2022-09-09T09:38:59;99480.56;;;23.18;47.54
25638;BME280;13496;51.040;13.680;2022-09-09T09:44:03;99475.75;;;23.27;47.53
25638;BME280;13496;51.040;13.680;2022-09-09T09:49:09;99468.28;;;23.35;47.44
25638;BME280;13496;51.040;13.680;2022-09-09T09:59:32;99466.94;;;23.56;46.92
25638;BME280;13496;51.040;13.680;2022-09-09T10:04:35;99459.25;;;23.55;47.18
25638;BME280;13496;51.040;13.680;2022-09-09T10:09:37;99457.63;;;23.65;46.20
25638;BME280;13496;51.040;13.680;2022-09-09T10:20:29;99450.47;;;23.54;45.97
25638;BME280;13496;51.040;13.680;2022-09-09T10:25:58;99448.66;;;23.55;46.43
25638;BME280;13496;51.040;13.680;2022-09-09T10:36:17;99436.69;;;23.76;46.27
25638;BME280;13496;51.040;13.680;2022-09-09T10:41:55;99423.44;;;23.64;46.83
25638;BME280;13496;51.040;13.680;2022-09-09T10:58:33;99413.19;;;23.91;46.83
25638;BME280;13496;51.040;13.680;2022-09-09T11:03:32;99417.34;;;23.87;47.00
25638;BME280;13496;51.040;13.680;2022-09-09T11:08:38;99412.47;;;23.60;47.45
25638;BME280;13496;51.040;13.680;2022-09-09T11:13:53;99398.69;;;23.82;47.09
25638;BME280;13496;51.040;13.680;2022-09-09T11:19:27;99418.28;;;23.81;47.32
25638;BME280;13496;51.040;13.680;2022-09-09T11:24:33;99408.94;;;23.90;46.96
25638;BME280;13496;51.040;13.680;2022-09-09T11:35:14;99405.78;;;23.58;48.08
25638;BME280;13496;51.040;13.680;2022-09-09T11:40:23;99396.41;;;23.74;47.66
25638;BME280;13496;51.040;13.680;2022-09-09T11:45:28;99398.72;;;23.70;47.54
25638;BME280;13496;51.040;13.680;2022-09-09T11:50:39;99398.44;;;23.60;48.05
25638;BME280;13496;51.040;13.680;2022-09-09T11:55:41;99402.59;;;23.56;48.42
25638;BME280;13496;51.040;13.680;2022-09-09T12:00:48;99398.34;;;23.66;47.73
25638;BME280;13496;51.040;13.680;2022-09-09T12:05:50;99389.25;;;23.86;47.54
25638;BME280;13496;51.040;13.680;2022-09-09T12:10:55;99386.34;;;23.87;47.59
25638;BME280;13496;51.040;13.680;2022-09-09T12:15:59;99388.78;;;23.89;47.33
25638;BME280;13496;51.040;13.680;2022-09-09T12:21:18;99371.28;;;23.88;47.79
25638;BME280;13496;51.040;13.680;2022-09-09T12:37:04;99367.34;;;23.90;48.10
25638;BME280;13496;51.040;13.680;2022-09-09T12:42:20;99349.72;;;23.96;47.88
25638;BME280;13496;51.040;13.680;2022-09-09T12:47:37;99350.19;;;23.93;47.99
25638;BME280;13496;51.040;13.680;2022-09-09T12:52:40;99353.97;;;23.97;47.77
25638;BME280;13496;51.040;13.680;2022-09-09T12:57:43;99344.53;;;24.01;47.60
25638;BME280;13496;51.040;13.680;2022-09-09T13:02:48;99347.06;;;23.96;47.75
25638;BME280;13496;51.040;13.680;2022-09-09T13:07:52;99335.69;;;23.96;47.51
25638;BME280;13496;51.040;13.680;2022-09-09T13:13:02;99330.03;;;23.92;47.70
25638;BME280;13496;51.040;13.680;2022-09-09T13:18:07;99324.91;;;24.02;47.06
25638;BME280;13496;51.040;13.680;2022-09-09T13:23:14;99320.91;;;24.00;47.16
25638;BME280;13496;51.040;13.680;2022-09-09T13:28:25;99314.34;;;23.90;47.72
25638;BME280;13496;51.040;13.680;2022-09-09T13:33:34;99318.59;;;24.03;47.47
25638;BME280;13496;51.040;13.680;2022-09-09T13:38:52;99323.66;;;24.05;47.45
25638;BME280;13496;51.040;13.680;2022-09-09T13:43:54;99332.09;;;23.90;47.98
25638;BME280;13496;51.040;13.680;2022-09-09T13:49:20;99333.91;;;24.01;47.93
25638;BME280;13496;51.040;13.680;2022-09-09T13:54:23;99336.38;;;23.79;48.45
25638;BME280;13496;51.040;13.680;2022-09-09T13:59:24;99335.22;;;23.75;48.62
25638;BME280;13496;51.040;13.680;2022-09-09T14:04:27;99329.13;;;23.75;48.88
25638;BME280;13496;51.040;13.680;2022-09-09T14:09:29;99318.59;;;23.91;48.41
25638;BME280;13496;51.040;13.680;2022-09-09T14:14:30;99321.03;;;23.93;48.26
25638;BME280;13496;51.040;13.680;2022-09-09T14:19:32;99321.16;;;23.86;48.49
25638;BME280;13496;51.040;13.680;2022-09-09T14:24:34;99313.19;;;23.98;48.25
25638;BME280;13496;51.040;13.680;2022-09-09T14:29:35;99303.53;;;23.92;48.42
25638;BME280;13496;51.040;13.680;2022-09-09T14:34:37;99299.50;;;23.89;48.53
25638;BME280;13496;51.040;13.680;2022-09-09T14:39:39;99292.94;;;23.92;48.51
25638;BME280;13496;51.040;13.680;2022-09-09T14:44:41;99297.19;;;23.93;48.76
25638;BME280;13496;51.040;13.680;2022-09-09T14:49:43;99295.56;;;24.04;48.30
25638;BME280;13496;51.040;13.680;2022-09-09T14:54:44;99285.94;;;24.14;47.73
25638;BME280;13496;51.040;13.680;2022-09-09T14:59:46;99290.00;;;24.05;48.02
25638;BME280;13496;51.040;13.680;2022-09-09T15:04:48;99295.97;;;24.12;48.00
25638;BME280;13496;51.040;13.680;2022-09-09T15:09:51;99298.63;;;24.12;48.00
25638;BME280;13496;51.040;13.680;2022-09-09T15:14:53;99293.78;;;24.09;47.76
25638;BME280;13496;51.040;13.680;2022-09-09T15:19:56;99286.97;;;24.13;47.81
25638;BME280;13496;51.040;13.680;2022-09-09T15:24:58;99285.19;;;24.31;47.22
25638;BME280;13496;51.040;13.680;2022-09-09T15:30:00;99299.03;;;24.33;46.67
25638;BME280;13496;51.040;13.680;2022-09-09T15:35:02;99289.22;;;24.33;46.60
25638;BME280;13496;51.040;13.680;2022-09-09T15:40:04;99302.94;;;24.30;46.20
25638;BME280;13496;51.040;13.680;2022-09-09T15:45:07;99298.44;;;24.31;45.94
25638;BME280;13496;51.040;13.680;2022-09-09T15:50:08;99299.03;;;24.33;46.07
25638;BME280;13496;51.040;13.680;2022-09-09T15:55:10;99292.09;;;24.32;46.45
25638;BME280;13496;51.040;13.680;2022-09-09T16:00:12;99286.00;;;24.31;46.32
25638;BME280;13496;51.040;13.680;2022-09-09T16:05:15;99299.03;;;24.33;46.59
25638;BME280;13496;51.040;13.680;2022-09-09T16:10:17;99291.22;;;24.26;46.36
25638;BME280;13496;51.040;13.680;2022-09-09T16:15:18;99296.88;;;24.18;45.83
25638;BME280;13496;51.040;13.680;2022-09-09T16:20:23;99295.50;;;24.15;46.15
25638;BME280;13496;51.040;13.680;2022-09-09T16:25:26;99303.94;;;24.12;46.51
25638;BME280;13496;51.040;13.680;2022-09-09T16:30:28;99305.72;;;24.24;46.44
25638;BME280;13496;51.040;13.680;2022-09-09T16:35:30;99305.06;;;24.17;46.81
25638;BME280;13496;51.040;13.680;2022-09-09T16:40:34;99310.94;;;24.19;46.65
25638;BME280;13496;51.040;13.680;2022-09-09T16:45:44;99316.97;;;24.14;47.18
25638;BME280;13496;51.040;13.680;2022-09-09T16:55:47;99324.19;;;24.19;47.05
25638;BME280;13496;51.040;13.680;2022-09-09T17:00:49;99329.03;;;24.22;45.80
25638;BME280;13496;51.040;13.680;2022-09-09T17:05:52;99333.03;;;24.24;46.23
25638;BME280;13496;51.040;13.680;2022-09-09T17:10:54;99332.72;;;24.21;45.79
25638;BME280;13496;51.040;13.680;2022-09-09T17:15:56;99338.47;;;24.18;46.42
25638;BME280;13496;51.040;13.680;2022-09-09T17:21:03;99338.16;;;24.14;45.83
25638;BME280;13496;51.040;13.680;2022-09-09T17:26:06;99341.03;;;24.12;46.49
25638;BME280;13496;51.040;13.680;2022-09-09T17:31:10;99343.81;;;24.06;46.80
25638;BME280;13496;51.040;13.680;2022-09-09T17:36:17;99351.78;;;23.94;46.82
25638;BME280;13496;51.040;13.680;2022-09-09T17:41:39;99351.22;;;23.92;47.00
25638;BME280;13496;51.040;13.680;2022-09-09T17:46:42;99361.84;;;23.92;46.97
25638;BME280;13496;51.040;13.680;2022-09-09T17:51:45;99361.94;;;23.85;46.95
25638;BME280;13496;51.040;13.680;2022-09-09T17:56:47;99377.03;;;23.85;46.87
25638;BME280;13496;51.040;13.680;2022-09-09T18:01:49;99375.75;;;23.87;46.89
25638;BME280;13496;51.040;13.680;2022-09-09T18:06:52;99395.69;;;23.90;47.08
25638;BME280;13496;51.040;13.680;2022-09-09T18:11:56;99407.56;;;23.99;46.64
25638;BME280;13496;51.040;13.680;2022-09-09T18:16:59;99401.00;;;23.90;46.09
25638;BME280;13496;51.040;13.680;2022-09-09T18:22:04;99397.09;;;23.81;45.79
25638;BME280;13496;51.040;13.680;2022-09-09T18:27:07;99401.78;;;23.90;46.75
25638;BME280;13496;51.040;13.680;2022-09-09T18:32:08;99390.63;;;23.88;46.07
25638;BME280;13496;51.040;13.680;2022-09-09T18:37:10;99393.50;;;23.87;46.60
25638;BME280;13496;51.040;13.680;2022-09-09T18:42:12;99403.53;;;23.85;46.70
25638;BME280;13496;51.040;13.680;2022-09-09T18:47:14;99406.66;;;23.82;46.60
25638;BME280;13496;51.040;13.680;2022-09-09T18:52:16;99413.19;;;23.91;46.57
25638;BME280;13496;51.040;13.680;2022-09-09T18:57:18;99416.56;;;23.75;46.65
25638;BME280;13496;51.040;13.680;2022-09-09T19:02:19;99416.78;;;23.73;46.54
25638;BME280;13496;51.040;13.680;2022-09-09T19:07:22;99414.25;;;23.66;46.77
25638;BME280;13496;51.040;13.680;2022-09-09T19:12:24;99420.53;;;23.65;46.73
25638;BME280;13496;51.040;13.680;2022-09-09T19:17:25;99420.44;;;23.60;46.47
25638;BME280;13496;51.040;13.680;2022-09-09T19:22:29;99417.31;;;23.63;46.45
25638;BME280;13496;51.040;13.680;2022-09-09T19:27:30;99428.19;;;23.74;46.16
25638;BME280;13496;51.040;13.680;2022-09-09T19:32:32;99430.31;;;23.65;46.19
25638;BME280;13496;51.040;13.680;2022-09-09T19:37:34;99439.88;;;23.54;46.42
25638;BME280;13496;51.040;13.680;2022-09-09T19:42:36;99437.91;;;23.50;46.48
25638;BME280;13496;51.040;13.680;2022-09-09T19:47:37;99437.09;;;23.49;46.63
25638;BME280;13496;51.040;13.680;2022-09-09T19:52:40;99427.56;;;23.48;46.57
25638;BME280;13496;51.040;13.680;2022-09-09T19:57:42;99425.94;;;23.47;46.58
25638;BME280;13496;51.040;13.680;2022-09-09T20:02:44;99431.69;;;23.44;46.81
25638;BME280;13496;51.040;13.680;2022-09-09T20:07:45;99433.75;;;23.42;47.04
25638;BME280;13496;51.040;13.680;2022-09-09T20:12:47;99440.09;;;23.41;47.08
25638;BME280;13496;51.040;13.680;2022-09-09T20:17:50;99443.78;;;23.40;47.11
25638;BME280;13496;51.040;13.680;2022-09-09T20:22:52;99448.25;;;23.39;46.86
25638;BME280;13496;51.040;13.680;2022-09-09T20:27:54;99454.59;;;23.38;46.98
25638;BME280;13496;51.040;13.680;2022-09-09T20:32:55;99461.13;;;23.36;46.88
25638;BME280;13496;51.040;13.680;2022-09-09T20:37:57;99460.69;;;23.39;46.85
25638;BME280;13496;51.040;13.680;2022-09-09T20:42:59;99467.13;;;23.43;46.88
25638;BME280;13496;51.040;13.680;2022-09-09T20:48:03;99464.13;;;23.39;46.84
25638;BME280;13496;51.040;13.680;2022-09-09T20:53:04;99468.28;;;23.35;47.04
25638;BME280;13496;51.040;13.680;2022-09-09T20:58:06;99464.00;;;23.34;47.24
25638;BME280;13496;51.040;13.680;2022-09-09T21:03:08;99472.19;;;23.33;47.24
25638;BME280;13496;51.040;13.680;2022-09-09T21:08:10;99479.53;;;23.31;47.31
25638;BME280;13496;51.040;13.680;2022-09-09T21:13:11;99476.34;;;23.29;47.44
25638;BME280;13496;51.040;13.680;2022-09-09T21:18:13;99481.63;;;23.29;47.44
25638;BME280;13496;51.040;13.680;2022-09-09T21:23:16;99481.63;;;23.29;47.48
25638;BME280;13496;51.040;13.680;2022-09-09T21:28:18;99481.03;;;23.27;47.46
25638;BME280;13496;51.040;13.680;2022-09-09T21:33:22;99476.53;;;23.27;47.62
25638;BME280;13496;51.040;13.680;2022-09-09T21:38:24;99480.00;;;23.28;47.45
25638;BME280;13496;51.040;13.680;2022-09-09T21:43:26;99479.44;;;23.26;47.65
25638;BME280;13496;51.040;13.680;2022-09-09T21:48:27;99479.19;;;23.27;47.83
25638;BME280;13496;51.040;13.680;2022-09-09T21:53:29;99477.22;;;23.23;48.03
25638;BME280;13496;51.040;13.680;2022-09-09T21:58:33;99471.34;;;23.21;48.09
25638;BME280;13496;51.040;13.680;2022-09-09T22:03:36;99467.06;;;23.19;48.07
25638;BME280;13496;51.040;13.680;2022-09-09T22:08:38;99465.47;;;23.18;48.18
25638;BME280;13496;51.040;13.680;2022-09-09T22:13:41;99461.19;;;23.17;48.25
25638;BME280;13496;51.040;13.680;2022-09-09T22:18:43;99457.97;;;23.15;48.19
25638;BME280;13496;51.040;13.680;2022-09-09T22:23:53;99457.97;;;23.15;48.24
25638;BME280;13496;51.040;13.680;2022-09-09T22:28:55;99454.28;;;23.16;48.14
25638;BME280;13496;51.040;13.680;2022-09-09T22:33:57;99455.56;;;23.14;48.07
25638;BME280;13496;51.040;13.680;2022-09-09T22:38:59;99451.53;;;23.11;48.19
25638;BME280;13496;51.040;13.680;2022-09-09T22:44:03;99443.13;;;23.14;48.21
25638;BME280;13496;51.040;13.680;2022-09-09T22:49:05;99440.13;;;23.11;47.89
25638;BME280;13496;51.040;13.680;2022-09-09T22:54:07;99438.28;;;23.11;47.74
25638;BME280;13496;51.040;13.680;2022-09-09T22:59:09;99435.28;;;23.08;47.53
25638;BME280;13496;51.040;13.680;2022-09-09T23:04:11;99429.19;;;23.07;47.39
25638;BME280;13496;51.040;13.680;2022-09-09T23:09:13;99432.03;;;23.06;47.47
25638;BME280;13496;51.040;13.680;2022-09-09T23:14:15;99422.75;;;23.03;47.14
25638;BME280;13496;51.040;13.680;2022-09-09T23:19:18;99423.44;;;23.10;47.17
25638;BME280;13496;51.040;13.680;2022-09-09T23:24:20;99422.75;;;23.03;47.30
25638;BME280;13496;51.040;13.680;2022-09-09T23:29:22;99430.72;;;23.15;47.07
25638;BME280;13496;51.040;13.680;2022-09-09T23:34:24;99430.72;;;23.15;47.10
25638;BME280;13496;51.040;13.680;2022-09-09T23:39:25;99426.78;;;23.17;46.91
25638;BME280;13496;51.040;13.680;2022-09-09T23:44:28;99435.75;;;23.16;46.88
25638;BME280;13496;51.040;13.680;2022-09-09T23:49:31;99430.34;;;23.11;46.97
25638;BME280;13496;51.040;13.680;2022-09-09T23:54:34;99437.38;;;23.17;46.66
25638;BME280;13496;51.040;13.680;2022-09-09T23:59:36;99434.47;;;23.07;46.70
